Terminal Aerodrome Forecast
Issued by NWS Charleston, WV

Current Version | Previous Version | Text Only | Print | Product List | Glossary Off
Versions: 1 2 3 4 5 6 7 8 9 10 11 12 13 14 15 16 17 18 19 20 21 22 23 24 25 26 27 28 29 30

000
FTUS41 KRLX 140200 AAA
TAFBKW
TAF AMD
KBKW 140229Z 1402/1424 VRB03KT 6SM BR SCT025 BKN035
      TEMPO 1402/1404 5SM BR SCT015 BKN025
     FM140400 33004KT 5SM BR SCT012
      TEMPO 1404/1408 6SM BR BKN012
     FM141500 14004KT P6SM SCT010
     FM141700 VRB03KT P6SM BKN012=

USA.gov is the U.S. government's official web portal to all federal, state and local government web resources and services.